Podhale (bahama Islands) — C6TX9 — position and weather

sailwx.info

Track history (hours):
 
Tides and Currents Weather Stations Pressure Air Temp Water Temp Dewpoint Dewpoint Depression Visibility Wind Speed Wind Dir Waves Ship Positions

Podhale (bahama Islands)

Last reported at 2016-Sep-29 21:31 UTC. Time now 2016-Sep-30 01:36 UTC.
Position N 54°41' E 020°12'.

Length 190 m; beam 24 m.

Type: Cargo ship. MMSI: 311831000.

Date/timePositionNaut miles runAvg speedWind from/ knotsBaromVisibWave heightAir tempDewpointWater temp
2016-Sep-29 21:31N 54°41' E 020°12'4 0.6
2016-Sep-29 15:16N 54°39' E 020°07'4 6.0
2016-Sep-29 14:33N 54°38' E 019°59'5 5.4
2016-Sep-29 13:33N 54°40' E 019°50'1 0.3
2016-Sep-29 08:30N 54°40' E 019°48'0 0.0
2016-Sep-29 07:24N 54°40' E 019°48'0 0.0
2016-Sep-29 00:15N 54°40' E 019°48'0 0.0
2016-Sep-28 19:33N 54°40' E 019°48'0 0.0
2016-Sep-28 16:24N 54°40' E 019°48'0 0.0
2016-Sep-28 15:33N 54°40' E 019°48'0 0.0
2016-Sep-28 12:30N 54°40' E 019°48'0 0.0
2016-Sep-28 08:33N 54°40' E 019°48'35 7.1
2016-Sep-28 03:34N 54°55' E 018°52'1313.0
2016-Sep-28 02:34N 54°58' E 018°30'1313.2
2016-Sep-28 01:33N 54°57' E 018°07'8113.4
2016-Sep-27 19:32N 54°43' E 015°49'6412.9
2016-Sep-27 14:33N 54°40' E 013°58'1313.2
2016-Sep-27 13:33N 54°44' E 013°36'3912.9
2016-Sep-27 10:34N 54°39' E 012°29'110 7.8
2016-Sep-26 20:24N 56°24' E 011°30'1113.2
2016-Sep-26 19:33N 56°33' E 011°40'5012.5
2016-Sep-26 15:33N 57°23' E 011°28'2612.8
2016-Sep-26 13:33N 57°37' E 010°49'12 2.4
2016-Sep-26 08:33N 57°49' E 010°41'26713.0
2016-Sep-25 12:04N 54°27' E 005°27'713.4
2016-Sep-25 11:32N 54°21' E 005°21'1313.3
2016-Sep-25 10:32N 54°09' E 005°11'1313.3
2016-Sep-25 09:34N 53°57' E 005°03'2613.1
2016-Sep-25 07:33N 53°32' E 004°47'3812.6
2016-Sep-25 04:34N 52°58' E 004°20'5012.4
2016-Sep-25 00:34N 52°20' E 003°27'2713.6
2016-Sep-24 22:33N 52°00' E 002°57'1414.2
2016-Sep-24 21:33N 51°50' E 002°42'2914.6
2016-Sep-24 19:33N 51°27' E 002°12'1414.4
2016-Sep-24 18:33N 51°14' E 002°04'1515.2
2016-Sep-24 17:33N 51°05' E 001°43'1615.6
2016-Sep-24 16:33N 50°54' E 001°27'5413.6
2016-Sep-24 12:33N 50°22' E 000°18'2713.4
2016-Sep-24 10:33N 50°15' W 000°23'1212.4
2016-Sep-24 09:33N 50°12' W 000°42'7312.0
2016-Sep-24 03:28N 49°53' W 002°32'1314.1
2016-Sep-24 02:33N 49°49' W 002°51'1414.5
2016-Sep-24 01:33N 49°42' W 003°10'1514.5
2016-Sep-24 00:33N 49°34' W 003°30'7714.5
2016-Sep-23 19:16N 48°56' W 005°11'  
Track history (hours):
 
Tides and Currents Weather Stations Pressure Air Temp Water Temp Dewpoint Dewpoint Depression Visibility Wind Speed Wind Dir Waves Ship Positions

Podhale (bahama Islands)

Last reported at 2016-Sep-29 21:31 UTC. Time now 2016-Sep-30 01:36 UTC.
Position N 54°41' E 020°12'.

Length 190 m; beam 24 m.

Type: Cargo ship. MMSI: 311831000.

Date/timePositionNaut miles runAvg speedWind from/ knotsBaromVisibWave heightAir tempDewpointWater temp
2016-Sep-29 21:31N 54°41' E 020°12'4 0.6
2016-Sep-29 15:16N 54°39' E 020°07'4 6.0
2016-Sep-29 14:33N 54°38' E 019°59'5 5.4
2016-Sep-29 13:33N 54°40' E 019°50'1 0.3
2016-Sep-29 08:30N 54°40' E 019°48'0 0.0
2016-Sep-29 07:24N 54°40' E 019°48'0 0.0
2016-Sep-29 00:15N 54°40' E 019°48'0 0.0
2016-Sep-28 19:33N 54°40' E 019°48'0 0.0
2016-Sep-28 16:24N 54°40' E 019°48'0 0.0
2016-Sep-28 15:33N 54°40' E 019°48'0 0.0
2016-Sep-28 12:30N 54°40' E 019°48'0 0.0
2016-Sep-28 08:33N 54°40' E 019°48'35 7.1
2016-Sep-28 03:34N 54°55' E 018°52'1313.0
2016-Sep-28 02:34N 54°58' E 018°30'1313.2
2016-Sep-28 01:33N 54°57' E 018°07'8113.4
2016-Sep-27 19:32N 54°43' E 015°49'6412.9
2016-Sep-27 14:33N 54°40' E 013°58'1313.2
2016-Sep-27 13:33N 54°44' E 013°36'3912.9
2016-Sep-27 10:34N 54°39' E 012°29'110 7.8
2016-Sep-26 20:24N 56°24' E 011°30'1113.2
2016-Sep-26 19:33N 56°33' E 011°40'5012.5
2016-Sep-26 15:33N 57°23' E 011°28'2612.8
2016-Sep-26 13:33N 57°37' E 010°49'12 2.4
2016-Sep-26 08:33N 57°49' E 010°41'26713.0
2016-Sep-25 12:04N 54°27' E 005°27'713.4
2016-Sep-25 11:32N 54°21' E 005°21'1313.3
2016-Sep-25 10:32N 54°09' E 005°11'1313.3
2016-Sep-25 09:34N 53°57' E 005°03'2613.1
2016-Sep-25 07:33N 53°32' E 004°47'3812.6
2016-Sep-25 04:34N 52°58' E 004°20'5012.4
2016-Sep-25 00:34N 52°20' E 003°27'2713.6
2016-Sep-24 22:33N 52°00' E 002°57'1414.2
2016-Sep-24 21:33N 51°50' E 002°42'2914.6
2016-Sep-24 19:33N 51°27' E 002°12'1414.4
2016-Sep-24 18:33N 51°14' E 002°04'1515.2
2016-Sep-24 17:33N 51°05' E 001°43'1615.6
2016-Sep-24 16:33N 50°54' E 001°27'5413.6
2016-Sep-24 12:33N 50°22' E 000°18'2713.4
2016-Sep-24 10:33N 50°15' W 000°23'1212.4
2016-Sep-24 09:33N 50°12' W 000°42'7312.0
2016-Sep-24 03:28N 49°53' W 002°32'1314.1
2016-Sep-24 02:33N 49°49' W 002°51'1414.5
2016-Sep-24 01:33N 49°42' W 003°10'1514.5
2016-Sep-24 00:33N 49°34' W 003°30'7714.5
2016-Sep-23 19:16N 48°56' W 005°11'  

Dump ship's entire track history